sensor_id;sensor_type;location;lat;lon;timestamp;temperature;humidity
39655;DHT22;25336;59.944;11.010;2022-07-19T00:01:38;18.40;66.70
39655;DHT22;25336;59.944;11.010;2022-07-19T00:04:04;17.70;66.40
39655;DHT22;25336;59.944;11.010;2022-07-19T00:06:30;17.70;66.60
39655;DHT22;25336;59.944;11.010;2022-07-19T00:08:56;17.60;66.70
39655;DHT22;25336;59.944;11.010;2022-07-19T00:11:21;18.40;67.50
39655;DHT22;25336;59.944;11.010;2022-07-19T00:13:47;17.60;67.80
39655;DHT22;25336;59.944;11.010;2022-07-19T00:16:13;17.50;67.10
39655;DHT22;25336;59.944;11.010;2022-07-19T00:18:40;17.50;67.20
39655;DHT22;25336;59.944;11.010;2022-07-19T00:21:05;17.60;67.20
39655;DHT22;25336;59.944;11.010;2022-07-19T00:23:31;17.40;67.00
39655;DHT22;25336;59.944;11.010;2022-07-19T00:25:56;17.40;67.00
39655;DHT22;25336;59.944;11.010;2022-07-19T00:28:22;17.40;67.20
39655;DHT22;25336;59.944;11.010;2022-07-19T00:30:48;17.50;67.50
39655;DHT22;25336;59.944;11.010;2022-07-19T00:33:13;17.30;67.40
39655;DHT22;25336;59.944;11.010;2022-07-19T00:35:40;18.10;67.90
39655;DHT22;25336;59.944;11.010;2022-07-19T00:38:07;17.20;67.30
39655;DHT22;25336;59.944;11.010;2022-07-19T00:40:33;17.20;67.30
39655;DHT22;25336;59.944;11.010;2022-07-19T00:42:58;17.30;67.40
39655;DHT22;25336;59.944;11.010;2022-07-19T00:45:24;17.10;67.20
39655;DHT22;25336;59.944;11.010;2022-07-19T00:47:50;17.10;67.20
39655;DHT22;25336;59.944;11.010;2022-07-19T00:50:17;17.90;67.70
39655;DHT22;25336;59.944;11.010;2022-07-19T00:52:46;17.10;67.10
39655;DHT22;25336;59.944;11.010;2022-07-19T00:55:13;17.10;67.30
39655;DHT22;25336;59.944;11.010;2022-07-19T00:57:40;17.00;67.10
39655;DHT22;25336;59.944;11.010;2022-07-19T01:00:08;17.00;67.00
39655;DHT22;25336;59.944;11.010;2022-07-19T01:02:35;17.00;67.00
39655;DHT22;25336;59.944;11.010;2022-07-19T01:05:02;16.90;66.90
39655;DHT22;25336;59.944;11.010;2022-07-19T01:07:28;17.00;66.80
39655;DHT22;25336;59.944;11.010;2022-07-19T01:09:54;16.90;66.70
39655;DHT22;25336;59.944;11.010;2022-07-19T01:12:20;16.90;66.60
39655;DHT22;25336;59.944;11.010;2022-07-19T01:14:48;16.90;66.60
39655;DHT22;25336;59.944;11.010;2022-07-19T01:17:14;16.90;66.50
39655;DHT22;25336;59.944;11.010;2022-07-19T01:19:42;16.90;66.50
39655;DHT22;25336;59.944;11.010;2022-07-19T01:22:08;16.80;66.50
39655;DHT22;25336;59.944;11.010;2022-07-19T01:24:34;16.80;66.40
39655;DHT22;25336;59.944;11.010;2022-07-19T01:26:59;17.60;66.80
39655;DHT22;25336;59.944;11.010;2022-07-19T01:29:25;17.40;66.70
39655;DHT22;25336;59.944;11.010;2022-07-19T01:31:51;16.00;65.90
39655;DHT22;25336;59.944;11.010;2022-07-19T01:34:18;16.70;66.30
39655;DHT22;25336;59.944;11.010;2022-07-19T01:36:44;16.60;66.00
39655;DHT22;25336;59.944;11.010;2022-07-19T01:39:10;16.60;66.00
39655;DHT22;25336;59.944;11.010;2022-07-19T01:41:35;16.50;65.90
39655;DHT22;25336;59.944;11.010;2022-07-19T01:44:01;16.50;65.90
39655;DHT22;25336;59.944;11.010;2022-07-19T01:46:26;16.50;66.00
39655;DHT22;25336;59.944;11.010;2022-07-19T01:48:52;16.40;66.00
39655;DHT22;25336;59.944;11.010;2022-07-19T01:51:18;16.40;66.10
39655;DHT22;25336;59.944;11.010;2022-07-19T01:53:43;17.20;66.60
39655;DHT22;25336;59.944;11.010;2022-07-19T01:56:09;16.30;66.10
39655;DHT22;25336;59.944;11.010;2022-07-19T01:58:34;16.30;66.20
39655;DHT22;25336;59.944;11.010;2022-07-19T02:01:00;16.60;66.50
39655;DHT22;25336;59.944;11.010;2022-07-19T02:03:26;16.20;66.20
39655;DHT22;25336;59.944;11.010;2022-07-19T02:05:51;17.20;66.80
39655;DHT22;25336;59.944;11.010;2022-07-19T02:08:17;16.10;66.20
39655;DHT22;25336;59.944;11.010;2022-07-19T02:10:43;16.70;66.70
39655;DHT22;25336;59.944;11.010;2022-07-19T02:13:08;16.10;66.40
39655;DHT22;25336;59.944;11.010;2022-07-19T02:15:34;16.10;66.60
39655;DHT22;25336;59.944;11.010;2022-07-19T02:18:00;16.00;66.60
39655;DHT22;25336;59.944;11.010;2022-07-19T02:20:28;16.10;66.60
39655;DHT22;25336;59.944;11.010;2022-07-19T02:22:54;16.00;66.70
39655;DHT22;25336;59.944;11.010;2022-07-19T02:25:20;16.00;66.80
39655;DHT22;25336;59.944;11.010;2022-07-19T02:27:45;16.00;66.90
39655;DHT22;25336;59.944;11.010;2022-07-19T02:30:12;15.90;66.90
39655;DHT22;25336;59.944;11.010;2022-07-19T02:32:39;15.90;67.10
39655;DHT22;25336;59.944;11.010;2022-07-19T02:35:06;15.90;67.10
39655;DHT22;25336;59.944;11.010;2022-07-19T02:37:32;15.90;67.00
39655;DHT22;25336;59.944;11.010;2022-07-19T02:39:58;16.70;67.40
39655;DHT22;25336;59.944;11.010;2022-07-19T02:42:23;15.90;66.80
39655;DHT22;25336;59.944;11.010;2022-07-19T02:44:49;15.90;66.70
39655;DHT22;25336;59.944;11.010;2022-07-19T02:47:15;15.90;66.70
39655;DHT22;25336;59.944;11.010;2022-07-19T02:49:40;15.90;66.50
39655;DHT22;25336;59.944;11.010;2022-07-19T02:52:06;16.50;66.90
39655;DHT22;25336;59.944;11.010;2022-07-19T02:54:31;16.80;67.10
39655;DHT22;25336;59.944;11.010;2022-07-19T02:56:57;16.40;66.80
39655;DHT22;25336;59.944;11.010;2022-07-19T02:59:23;16.50;66.90
39655;DHT22;25336;59.944;11.010;2022-07-19T03:01:49;15.80;66.30
39655;DHT22;25336;59.944;11.010;2022-07-19T03:04:14;15.80;66.30
39655;DHT22;25336;59.944;11.010;2022-07-19T03:06:40;16.30;66.70
39655;DHT22;25336;59.944;11.010;2022-07-19T03:09:05;15.80;66.40
39655;DHT22;25336;59.944;11.010;2022-07-19T03:11:31;16.30;66.80
39655;DHT22;25336;59.944;11.010;2022-07-19T03:13:57;16.40;66.80
39655;DHT22;25336;59.944;11.010;2022-07-19T03:16:22;15.80;66.50
39655;DHT22;25336;59.944;11.010;2022-07-19T03:18:48;15.80;66.50
39655;DHT22;25336;59.944;11.010;2022-07-19T03:21:13;16.10;66.60
39655;DHT22;25336;59.944;11.010;2022-07-19T03:23:40;15.80;66.40
39655;DHT22;25336;59.944;11.010;2022-07-19T03:26:06;15.80;66.50
39655;DHT22;25336;59.944;11.010;2022-07-19T03:28:32;15.80;66.60
39655;DHT22;25336;59.944;11.010;2022-07-19T03:30:58;16.00;66.80
39655;DHT22;25336;59.944;11.010;2022-07-19T03:33:24;15.80;66.60
39655;DHT22;25336;59.944;11.010;2022-07-19T03:35:49;15.90;66.50
39655;DHT22;25336;59.944;11.010;2022-07-19T03:38:15;15.90;66.50
39655;DHT22;25336;59.944;11.010;2022-07-19T03:40:43;15.80;66.40
39655;DHT22;25336;59.944;11.010;2022-07-19T03:43:08;15.80;66.40
39655;DHT22;25336;59.944;11.010;2022-07-19T03:45:34;15.80;66.40
39655;DHT22;25336;59.944;11.010;2022-07-19T03:47:59;15.80;66.40
39655;DHT22;25336;59.944;11.010;2022-07-19T03:50:26;15.80;66.50
39655;DHT22;25336;59.944;11.010;2022-07-19T03:52:52;15.80;66.50
39655;DHT22;25336;59.944;11.010;2022-07-19T03:55:17;16.90;67.30
39655;DHT22;25336;59.944;11.010;2022-07-19T03:57:43;16.50;67.20
39655;DHT22;25336;59.944;11.010;2022-07-19T04:00:09;15.90;66.70
39655;DHT22;25336;59.944;11.010;2022-07-19T04:02:34;15.90;66.80
39655;DHT22;25336;59.944;11.010;2022-07-19T04:05:00;15.90;66.80
39655;DHT22;25336;59.944;11.010;2022-07-19T04:07:26;16.40;67.20
39655;DHT22;25336;59.944;11.010;2022-07-19T04:09:51;16.10;67.10
39655;DHT22;25336;59.944;11.010;2022-07-19T04:12:17;16.10;67.20
39655;DHT22;25336;59.944;11.010;2022-07-19T04:14:42;16.00;67.20
39655;DHT22;25336;59.944;11.010;2022-07-19T04:17:08;16.20;67.40
39655;DHT22;25336;59.944;11.010;2022-07-19T04:19:34;16.00;67.20
39655;DHT22;25336;59.944;11.010;2022-07-19T04:22:00;16.20;67.50
39655;DHT22;25336;59.944;11.010;2022-07-19T04:24:26;16.10;67.40
39655;DHT22;25336;59.944;11.010;2022-07-19T04:26:51;16.20;67.00
39655;DHT22;25336;59.944;11.010;2022-07-19T04:29:17;16.20;68.20
39655;DHT22;25336;59.944;11.010;2022-07-19T04:31:43;16.20;67.40
39655;DHT22;25336;59.944;11.010;2022-07-19T04:34:11;16.80;67.60
39655;DHT22;25336;59.944;11.010;2022-07-19T04:36:37;16.80;67.50
39655;DHT22;25336;59.944;11.010;2022-07-19T04:39:03;17.60;67.90
39655;DHT22;25336;59.944;11.010;2022-07-19T04:41:28;16.50;67.10
39655;DHT22;25336;59.944;11.010;2022-07-19T04:43:54;17.70;67.90
39655;DHT22;25336;59.944;11.010;2022-07-19T04:46:20;16.50;66.90
39655;DHT22;25336;59.944;11.010;2022-07-19T04:48:45;16.60;66.80
39655;DHT22;25336;59.944;11.010;2022-07-19T04:51:11;16.60;66.70
39655;DHT22;25336;59.944;11.010;2022-07-19T04:53:37;16.90;66.70
39655;DHT22;25336;59.944;11.010;2022-07-19T04:56:02;16.70;66.50
39655;DHT22;25336;59.944;11.010;2022-07-19T04:58:28;16.80;66.60
39655;DHT22;25336;59.944;11.010;2022-07-19T05:01:01;16.80;66.60
39655;DHT22;25336;59.944;11.010;2022-07-19T05:03:27;17.10;66.70
39655;DHT22;25336;59.944;11.010;2022-07-19T05:05:54;17.00;66.60
39655;DHT22;25336;59.944;11.010;2022-07-19T05:08:22;17.00;66.50
39655;DHT22;25336;59.944;11.010;2022-07-19T05:10:48;17.10;66.40
39655;DHT22;25336;59.944;11.010;2022-07-19T05:13:14;17.20;66.30
39655;DHT22;25336;59.944;11.010;2022-07-19T05:15:42;17.30;66.40
39655;DHT22;25336;59.944;11.010;2022-07-19T05:18:12;17.40;66.30
39655;DHT22;25336;59.944;11.010;2022-07-19T05:20:37;18.50;66.80
39655;DHT22;25336;59.944;11.010;2022-07-19T05:23:03;18.20;66.20
39655;DHT22;25336;59.944;11.010;2022-07-19T05:25:29;17.60;65.50
39655;DHT22;25336;59.944;11.010;2022-07-19T05:27:54;17.70;66.00
39655;DHT22;25336;59.944;11.010;2022-07-19T05:30:23;18.30;64.60
39655;DHT22;25336;59.944;11.010;2022-07-19T05:32:48;17.90;63.20
39655;DHT22;25336;59.944;11.010;2022-07-19T05:35:14;18.00;62.20
39655;DHT22;25336;59.944;11.010;2022-07-19T05:37:40;18.10;61.40
39655;DHT22;25336;59.944;11.010;2022-07-19T05:40:06;18.20;60.80
39655;DHT22;25336;59.944;11.010;2022-07-19T05:42:32;18.40;60.40
39655;DHT22;25336;59.944;11.010;2022-07-19T05:44:58;18.70;60.00
39655;DHT22;25336;59.944;11.010;2022-07-19T05:47:24;18.60;59.30
39655;DHT22;25336;59.944;11.010;2022-07-19T05:49:49;18.70;58.80
39655;DHT22;25336;59.944;11.010;2022-07-19T05:52:15;18.90;58.20
39655;DHT22;25336;59.944;11.010;2022-07-19T05:54:40;19.00;57.80
39655;DHT22;25336;59.944;11.010;2022-07-19T05:57:06;19.10;57.20
39655;DHT22;25336;59.944;11.010;2022-07-19T05:59:32;19.60;57.00
39655;DHT22;25336;59.944;11.010;2022-07-19T06:02:01;19.30;56.50
39655;DHT22;25336;59.944;11.010;2022-07-19T06:04:27;19.40;55.80
39655;DHT22;25336;59.944;11.010;2022-07-19T06:06:53;20.50;56.40
39655;DHT22;25336;59.944;11.010;2022-07-19T06:09:19;19.60;55.50
39655;DHT22;25336;59.944;11.010;2022-07-19T06:11:45;19.60;55.20
39655;DHT22;25336;59.944;11.010;2022-07-19T06:14:11;19.70;55.10
39655;DHT22;25336;59.944;11.010;2022-07-19T06:16:38;19.80;54.50
39655;DHT22;25336;59.944;11.010;2022-07-19T06:19:06;19.80;53.90
39655;DHT22;25336;59.944;11.010;2022-07-19T06:21:32;19.90;53.30
39655;DHT22;25336;59.944;11.010;2022-07-19T06:23:59;20.00;53.10
39655;DHT22;25336;59.944;11.010;2022-07-19T06:26:24;20.10;52.90
39655;DHT22;25336;59.944;11.010;2022-07-19T06:28:52;20.10;52.70
39655;DHT22;25336;59.944;11.010;2022-07-19T06:31:20;20.20;52.20
39655;DHT22;25336;59.944;11.010;2022-07-19T06:33:48;20.20;52.10
39655;DHT22;25336;59.944;11.010;2022-07-19T06:36:14;20.30;52.10
39655;DHT22;25336;59.944;11.010;2022-07-19T06:38:50;20.30;51.90
39655;DHT22;25336;59.944;11.010;2022-07-19T06:41:17;20.30;51.10
39655;DHT22;25336;59.944;11.010;2022-07-19T06:43:43;20.40;51.20
39655;DHT22;25336;59.944;11.010;2022-07-19T06:46:09;19.80;51.20
39655;DHT22;25336;59.944;11.010;2022-07-19T06:48:36;20.40;50.80
39655;DHT22;25336;59.944;11.010;2022-07-19T06:51:02;20.50;50.70
39655;DHT22;25336;59.944;11.010;2022-07-19T06:53:32;20.60;50.70
39655;DHT22;25336;59.944;11.010;2022-07-19T06:55:58;20.60;50.20
39655;DHT22;25336;59.944;11.010;2022-07-19T06:58:23;20.60;50.00
39655;DHT22;25336;59.944;11.010;2022-07-19T07:00:49;20.70;49.90
39655;DHT22;25336;59.944;11.010;2022-07-19T07:03:17;20.80;49.50
39655;DHT22;25336;59.944;11.010;2022-07-19T07:05:44;20.80;49.30
39655;DHT22;25336;59.944;11.010;2022-07-19T07:08:10;20.80;49.30
39655;DHT22;25336;59.944;11.010;2022-07-19T07:10:35;20.80;49.10
39655;DHT22;25336;59.944;11.010;2022-07-19T07:13:01;20.90;49.10
39655;DHT22;25336;59.944;11.010;2022-07-19T07:15:27;21.90;49.60
39655;DHT22;25336;59.944;11.010;2022-07-19T07:17:53;21.00;49.00
39655;DHT22;25336;59.944;11.010;2022-07-19T07:20:19;21.00;49.00
39655;DHT22;25336;59.944;11.010;2022-07-19T07:22:47;21.10;48.90
39655;DHT22;25336;59.944;11.010;2022-07-19T07:25:13;21.20;49.00
39655;DHT22;25336;59.944;11.010;2022-07-19T07:27:38;21.20;48.50
39655;DHT22;25336;59.944;11.010;2022-07-19T07:30:05;21.30;49.00
39655;DHT22;25336;59.944;11.010;2022-07-19T07:32:31;21.40;49.60
39655;DHT22;25336;59.944;11.010;2022-07-19T07:34:57;21.50;50.00
39655;DHT22;25336;59.944;11.010;2022-07-19T07:37:22;21.60;49.60
39655;DHT22;25336;59.944;11.010;2022-07-19T07:39:48;21.70;49.30
39655;DHT22;25336;59.944;11.010;2022-07-19T07:42:14;21.80;49.50
39655;DHT22;25336;59.944;11.010;2022-07-19T07:44:40;22.00;49.20
39655;DHT22;25336;59.944;11.010;2022-07-19T07:47:16;22.10;48.70
39655;DHT22;25336;59.944;11.010;2022-07-19T07:49:48;22.30;48.30
39655;DHT22;25336;59.944;11.010;2022-07-19T07:52:15;22.40;48.60
39655;DHT22;25336;59.944;11.010;2022-07-19T07:54:41;22.50;48.30
39655;DHT22;25336;59.944;11.010;2022-07-19T07:57:09;22.60;47.90
39655;DHT22;25336;59.944;11.010;2022-07-19T07:59:35;22.60;47.40
39655;DHT22;25336;59.944;11.010;2022-07-19T08:02:01;22.60;47.30
39655;DHT22;25336;59.944;11.010;2022-07-19T08:04:30;22.60;47.30
39655;DHT22;25336;59.944;11.010;2022-07-19T08:06:56;22.70;47.40
39655;DHT22;25336;59.944;11.010;2022-07-19T08:09:22;22.70;47.20
39655;DHT22;25336;59.944;11.010;2022-07-19T08:11:47;22.70;46.40
39655;DHT22;25336;59.944;11.010;2022-07-19T08:14:13;22.70;46.30
39655;DHT22;25336;59.944;11.010;2022-07-19T08:16:39;22.60;46.20
39655;DHT22;25336;59.944;11.010;2022-07-19T08:19:05;22.60;47.00
39655;DHT22;25336;59.944;11.010;2022-07-19T08:21:31;22.60;46.60
39655;DHT22;25336;59.944;11.010;2022-07-19T08:23:56;22.60;46.80
39655;DHT22;25336;59.944;11.010;2022-07-19T08:26:23;22.60;46.60
39655;DHT22;25336;59.944;11.010;2022-07-19T08:28:54;22.70;46.50
39655;DHT22;25336;59.944;11.010;2022-07-19T08:31:19;22.70;46.40
39655;DHT22;25336;59.944;11.010;2022-07-19T08:33:47;22.70;46.60
39655;DHT22;25336;59.944;11.010;2022-07-19T08:36:13;22.80;46.60
39655;DHT22;25336;59.944;11.010;2022-07-19T08:38:41;22.90;46.70
39655;DHT22;25336;59.944;11.010;2022-07-19T08:41:08;23.00;47.00
39655;DHT22;25336;59.944;11.010;2022-07-19T08:43:34;23.00;47.20
39655;DHT22;25336;59.944;11.010;2022-07-19T08:46:03;23.20;46.60
39655;DHT22;25336;59.944;11.010;2022-07-19T08:48:36;23.30;45.70
39655;DHT22;25336;59.944;11.010;2022-07-19T08:51:02;23.50;45.00
39655;DHT22;25336;59.944;11.010;2022-07-19T08:53:31;23.60;45.50
39655;DHT22;25336;59.944;11.010;2022-07-19T08:55:58;23.70;44.20
39655;DHT22;25336;59.944;11.010;2022-07-19T08:58:23;23.70;43.40
39655;DHT22;25336;59.944;11.010;2022-07-19T09:00:49;23.80;42.70
39655;DHT22;25336;59.944;11.010;2022-07-19T09:03:15;23.80;42.30
39655;DHT22;25336;59.944;11.010;2022-07-19T09:05:41;23.90;43.10
39655;DHT22;25336;59.944;11.010;2022-07-19T09:08:17;23.90;43.10
39655;DHT22;25336;59.944;11.010;2022-07-19T09:10:48;24.00;43.10
39655;DHT22;25336;59.944;11.010;2022-07-19T09:13:33;24.10;42.90
39655;DHT22;25336;59.944;11.010;2022-07-19T09:15:59;24.10;43.10
39655;DHT22;25336;59.944;11.010;2022-07-19T09:18:33;24.20;43.60
39655;DHT22;25336;59.944;11.010;2022-07-19T09:21:05;24.20;43.20
39655;DHT22;25336;59.944;11.010;2022-07-19T09:23:31;24.30;42.30
39655;DHT22;25336;59.944;11.010;2022-07-19T09:25:59;24.30;42.90
39655;DHT22;25336;59.944;11.010;2022-07-19T09:28:26;24.30;42.90
39655;DHT22;25336;59.944;11.010;2022-07-19T09:30:54;24.40;42.80
39655;DHT22;25336;59.944;11.010;2022-07-19T09:33:26;24.50;42.90
39655;DHT22;25336;59.944;11.010;2022-07-19T09:35:56;24.50;41.80
39655;DHT22;25336;59.944;11.010;2022-07-19T09:38:35;24.60;41.40
39655;DHT22;25336;59.944;11.010;2022-07-19T09:41:13;24.60;41.50
39655;DHT22;25336;59.944;11.010;2022-07-19T09:46:37;24.70;41.60
39655;DHT22;25336;59.944;11.010;2022-07-19T09:49:15;24.80;42.00
39655;DHT22;25336;59.944;11.010;2022-07-19T09:51:46;24.90;42.40
39655;DHT22;25336;59.944;11.010;2022-07-19T09:54:15;25.00;41.80
39655;DHT22;25336;59.944;11.010;2022-07-19T09:56:42;25.00;41.50
39655;DHT22;25336;59.944;11.010;2022-07-19T09:59:09;25.10;42.00
39655;DHT22;25336;59.944;11.010;2022-07-19T10:01:36;25.10;41.40
39655;DHT22;25336;59.944;11.010;2022-07-19T10:04:13;25.10;42.20
39655;DHT22;25336;59.944;11.010;2022-07-19T10:06:40;25.10;41.70
39655;DHT22;25336;59.944;11.010;2022-07-19T10:09:12;25.20;41.40
39655;DHT22;25336;59.944;11.010;2022-07-19T10:11:41;25.20;40.40
39655;DHT22;25336;59.944;11.010;2022-07-19T10:14:08;25.20;39.90
39655;DHT22;25336;59.944;11.010;2022-07-19T10:21:55;25.20;39.90
39655;DHT22;25336;59.944;11.010;2022-07-19T10:25:40;25.10;40.00
39655;DHT22;25336;59.944;11.010;2022-07-19T10:27:38;25.00;39.80
39655;DHT22;25336;59.944;11.010;2022-07-19T10:32:36;24.90;40.60
39655;DHT22;25336;59.944;11.010;2022-07-19T10:37:46;24.90;39.90
39655;DHT22;25336;59.944;11.010;2022-07-19T10:40:12;24.90;40.10
39655;DHT22;25336;59.944;11.010;2022-07-19T10:43:05;24.90;40.60
39655;DHT22;25336;59.944;11.010;2022-07-19T10:45:32;24.90;41.00
39655;DHT22;25336;59.944;11.010;2022-07-19T10:48:05;24.90;40.60
39655;DHT22;25336;59.944;11.010;2022-07-19T10:50:49;24.90;39.50
39655;DHT22;25336;59.944;11.010;2022-07-19T10:58:49;24.80;40.30
39655;DHT22;25336;59.944;11.010;2022-07-19T11:01:16;24.70;39.50
39655;DHT22;25336;59.944;11.010;2022-07-19T11:03:44;24.80;40.00
39655;DHT22;25336;59.944;11.010;2022-07-19T11:06:25;24.70;40.20
39655;DHT22;25336;59.944;11.010;2022-07-19T11:08:56;24.80;39.90
39655;DHT22;25336;59.944;11.010;2022-07-19T11:11:23;24.90;39.10
39655;DHT22;25336;59.944;11.010;2022-07-19T11:13:54;24.90;39.70
39655;DHT22;25336;59.944;11.010;2022-07-19T11:16:20;24.90;39.70
39655;DHT22;25336;59.944;11.010;2022-07-19T11:18:47;25.00;39.90
39655;DHT22;25336;59.944;11.010;2022-07-19T11:21:14;25.10;39.70
39655;DHT22;25336;59.944;11.010;2022-07-19T11:23:41;25.10;39.50
39655;DHT22;25336;59.944;11.010;2022-07-19T11:28:39;25.20;39.20
39655;DHT22;25336;59.944;11.010;2022-07-19T11:31:22;25.30;40.10
39655;DHT22;25336;59.944;11.010;2022-07-19T11:33:50;25.40;38.90
39655;DHT22;25336;59.944;11.010;2022-07-19T11:36:17;25.50;39.20
39655;DHT22;25336;59.944;11.010;2022-07-19T11:38:47;25.50;39.40
39655;DHT22;25336;59.944;11.010;2022-07-19T11:41:14;25.60;39.80
39655;DHT22;25336;59.944;11.010;2022-07-19T11:43:40;25.60;39.00
39655;DHT22;25336;59.944;11.010;2022-07-19T11:46:06;25.70;38.90
39655;DHT22;25336;59.944;11.010;2022-07-19T11:48:32;25.80;38.90
39655;DHT22;25336;59.944;11.010;2022-07-19T11:50:59;25.80;38.30
39655;DHT22;25336;59.944;11.010;2022-07-19T11:53:25;25.90;38.80
39655;DHT22;25336;59.944;11.010;2022-07-19T11:55:51;25.90;39.30
39655;DHT22;25336;59.944;11.010;2022-07-19T11:58:16;26.00;38.80
39655;DHT22;25336;59.944;11.010;2022-07-19T12:00:42;26.10;38.70
39655;DHT22;25336;59.944;11.010;2022-07-19T12:03:17;26.10;39.00
39655;DHT22;25336;59.944;11.010;2022-07-19T12:06:00;26.20;38.50
39655;DHT22;25336;59.944;11.010;2022-07-19T12:10:58;26.40;38.80
39655;DHT22;25336;59.944;11.010;2022-07-19T12:13:31;26.50;38.90
39655;DHT22;25336;59.944;11.010;2022-07-19T12:15:58;26.50;38.00
39655;DHT22;25336;59.944;11.010;2022-07-19T12:21:25;26.60;37.90
39655;DHT22;25336;59.944;11.010;2022-07-19T12:24:11;26.70;37.90
39655;DHT22;25336;59.944;11.010;2022-07-19T12:26:37;26.80;37.00
39655;DHT22;25336;59.944;11.010;2022-07-19T12:29:23;26.80;39.10
39655;DHT22;25336;59.944;11.010;2022-07-19T12:31:52;26.90;37.00
39655;DHT22;25336;59.944;11.010;2022-07-19T12:34:18;26.90;36.20
39655;DHT22;25336;59.944;11.010;2022-07-19T12:36:44;26.90;35.80
39655;DHT22;25336;59.944;11.010;2022-07-19T12:39:27;26.90;35.60
39655;DHT22;25336;59.944;11.010;2022-07-19T12:44:23;26.90;35.40
39655;DHT22;25336;59.944;11.010;2022-07-19T12:46:49;26.90;35.90
39655;DHT22;25336;59.944;11.010;2022-07-19T12:49:14;26.90;35.80
39655;DHT22;25336;59.944;11.010;2022-07-19T12:51:40;26.90;36.40
39655;DHT22;25336;59.944;11.010;2022-07-19T12:54:10;26.90;36.90
39655;DHT22;25336;59.944;11.010;2022-07-19T12:56:35;27.00;36.70
39655;DHT22;25336;59.944;11.010;2022-07-19T12:59:01;27.10;37.10
39655;DHT22;25336;59.944;11.010;2022-07-19T13:01:45;27.20;36.30
39655;DHT22;25336;59.944;11.010;2022-07-19T13:04:11;27.30;36.10
39655;DHT22;25336;59.944;11.010;2022-07-19T13:06:37;27.40;36.50
39655;DHT22;25336;59.944;11.010;2022-07-19T13:09:03;27.50;36.50
39655;DHT22;25336;59.944;11.010;2022-07-19T13:11:28;27.50;36.00
39655;DHT22;25336;59.944;11.010;2022-07-19T13:13:54;27.60;35.70
39655;DHT22;25336;59.944;11.010;2022-07-19T13:16:20;27.60;35.60
39655;DHT22;25336;59.944;11.010;2022-07-19T13:18:49;27.70;35.40
39655;DHT22;25336;59.944;11.010;2022-07-19T13:21:19;27.70;34.90
39655;DHT22;25336;59.944;11.010;2022-07-19T13:23:45;27.80;34.20
39655;DHT22;25336;59.944;11.010;2022-07-19T13:26:11;27.80;33.70
39655;DHT22;25336;59.944;11.010;2022-07-19T13:28:37;27.80;33.80
39655;DHT22;25336;59.944;11.010;2022-07-19T13:31:03;27.80;34.20
39655;DHT22;25336;59.944;11.010;2022-07-19T13:33:29;27.90;34.60
39655;DHT22;25336;59.944;11.010;2022-07-19T13:35:55;27.90;34.50
39655;DHT22;25336;59.944;11.010;2022-07-19T13:38:20;27.90;35.10
39655;DHT22;25336;59.944;11.010;2022-07-19T13:40:46;28.00;35.00
39655;DHT22;25336;59.944;11.010;2022-07-19T13:43:12;28.10;34.40
39655;DHT22;25336;59.944;11.010;2022-07-19T13:45:38;28.10;34.50
39655;DHT22;25336;59.944;11.010;2022-07-19T13:48:03;28.20;33.90
39655;DHT22;25336;59.944;11.010;2022-07-19T13:50:29;28.30;33.80
39655;DHT22;25336;59.944;11.010;2022-07-19T13:52:56;28.40;33.50
39655;DHT22;25336;59.944;11.010;2022-07-19T13:55:22;28.40;33.50
39655;DHT22;25336;59.944;11.010;2022-07-19T13:57:48;28.40;33.20
39655;DHT22;25336;59.944;11.010;2022-07-19T14:00:14;28.50;33.40
39655;DHT22;25336;59.944;11.010;2022-07-19T14:02:46;28.50;33.40
39655;DHT22;25336;59.944;11.010;2022-07-19T14:05:12;28.60;34.60
39655;DHT22;25336;59.944;11.010;2022-07-19T14:07:38;28.70;34.30
39655;DHT22;25336;59.944;11.010;2022-07-19T14:10:04;28.80;33.80
39655;DHT22;25336;59.944;11.010;2022-07-19T14:12:30;28.90;34.30
39655;DHT22;25336;59.944;11.010;2022-07-19T14:14:56;29.00;33.80
39655;DHT22;25336;59.944;11.010;2022-07-19T14:17:21;29.10;33.30
39655;DHT22;25336;59.944;11.010;2022-07-19T14:19:47;29.20;33.60
39655;DHT22;25336;59.944;11.010;2022-07-19T14:22:13;29.30;33.10
39655;DHT22;25336;59.944;11.010;2022-07-19T14:24:38;29.40;33.10
39655;DHT22;25336;59.944;11.010;2022-07-19T14:27:04;29.40;33.10
39655;DHT22;25336;59.944;11.010;2022-07-19T14:29:29;29.40;32.70
39655;DHT22;25336;59.944;11.010;2022-07-19T14:31:55;29.40;33.20
39655;DHT22;25336;59.944;11.010;2022-07-19T14:34:21;29.50;33.50
39655;DHT22;25336;59.944;11.010;2022-07-19T14:36:46;29.50;32.90
39655;DHT22;25336;59.944;11.010;2022-07-19T14:39:12;29.60;32.50
39655;DHT22;25336;59.944;11.010;2022-07-19T14:41:38;29.70;32.80
39655;DHT22;25336;59.944;11.010;2022-07-19T14:44:04;29.80;32.70
39655;DHT22;25336;59.944;11.010;2022-07-19T14:46:30;29.80;32.20
39655;DHT22;25336;59.944;11.010;2022-07-19T14:48:56;29.80;31.70
39655;DHT22;25336;59.944;11.010;2022-07-19T14:51:21;29.90;32.20
39655;DHT22;25336;59.944;11.010;2022-07-19T14:53:47;29.90;31.80
39655;DHT22;25336;59.944;11.010;2022-07-19T14:56:13;29.90;32.30
39655;DHT22;25336;59.944;11.010;2022-07-19T14:58:38;29.90;32.20
39655;DHT22;25336;59.944;11.010;2022-07-19T15:01:05;30.00;31.90
39655;DHT22;25336;59.944;11.010;2022-07-19T15:03:32;30.00;31.90
39655;DHT22;25336;59.944;11.010;2022-07-19T15:05:57;30.00;32.40
39655;DHT22;25336;59.944;11.010;2022-07-19T15:08:23;30.10;32.80
39655;DHT22;25336;59.944;11.010;2022-07-19T15:10:48;29.80;31.40
39655;DHT22;25336;59.944;11.010;2022-07-19T15:13:14;30.20;31.80
39655;DHT22;25336;59.944;11.010;2022-07-19T15:15:42;30.20;32.00
39655;DHT22;25336;59.944;11.010;2022-07-19T15:18:07;30.20;31.30
39655;DHT22;25336;59.944;11.010;2022-07-19T15:20:33;30.20;31.30
39655;DHT22;25336;59.944;11.010;2022-07-19T15:22:59;30.20;31.80
39655;DHT22;25336;59.944;11.010;2022-07-19T15:25:25;30.20;31.80
39655;DHT22;25336;59.944;11.010;2022-07-19T15:27:51;30.20;32.00
39655;DHT22;25336;59.944;11.010;2022-07-19T15:30:18;30.20;31.30
39655;DHT22;25336;59.944;11.010;2022-07-19T15:32:45;30.20;31.50
39655;DHT22;25336;59.944;11.010;2022-07-19T15:35:10;30.20;31.80
39655;DHT22;25336;59.944;11.010;2022-07-19T15:37:37;30.20;31.90
39655;DHT22;25336;59.944;11.010;2022-07-19T15:40:03;30.20;31.70
39655;DHT22;25336;59.944;11.010;2022-07-19T15:42:29;30.70;31.90
39655;DHT22;25336;59.944;11.010;2022-07-19T15:44:54;30.20;31.90